THY9634 LTBJ-LTAC
Flight info
| Callsign | THY9634 |
|---|---|
| Flight time | 1h 1m |
| Altitude | 37000 |
| Route | KULAR UT54 HALIL |
| Aircraft | B738/M-SDE2E3FGHIRWXY/LB1 |
Departure
| Time | 2026-05-04 20:51 |
|---|---|
| Airport | Adnan Menderes International Airport (LTBJ) |
Arrival
| Time | 2026-05-04 21:52 |
|---|---|
| Airport | Esenboğa International Airport (LTAC) |
| Time | Latitude | Longitude | Altitude | Speed | Heading |
|---|---|---|---|---|---|
| 2026-05-04 20:51 | 38.34572 | 27.14661 | 3824 ft | 212 kts | 352° |
| 2026-05-04 20:51 | 38.36058 | 27.14395 | 4562 ft | 221 kts | 352° |
| 2026-05-04 20:51 | 38.37570 | 27.14132 | 5425 ft | 224 kts | 353° |
| 2026-05-04 20:51 | 38.39112 | 27.13863 | 6285 ft | 229 kts | 354° |
| 2026-05-04 20:52 | 38.40682 | 27.13588 | 7289 ft | 232 kts | 353° |
| 2026-05-04 20:52 | 38.42300 | 27.13303 | 8113 ft | 242 kts | 353° |
| 2026-05-04 20:52 | 38.43986 | 27.13054 | 8927 ft | 252 kts | 358° |
| 2026-05-04 20:52 | 38.45724 | 27.13281 | 9951 ft | 254 kts | 16° |
| 2026-05-04 20:53 | 38.47308 | 27.14301 | 10764 ft | 266 kts | 32° |
| 2026-05-04 20:53 | 38.48680 | 27.15975 | 11352 ft | 289 kts | 46° |
| 2026-05-04 20:53 | 38.49697 | 27.18334 | 11889 ft | 317 kts | 67° |
| 2026-05-04 20:53 | 38.50087 | 27.21186 | 12461 ft | 340 kts | 78° |
| 2026-05-04 20:54 | 38.50258 | 27.24228 | 13168 ft | 350 kts | 80° |
| 2026-05-04 20:54 | 38.50394 | 27.27355 | 13954 ft | 357 kts | 81° |
| 2026-05-04 20:54 | 38.50548 | 27.30516 | 14878 ft | 359 kts | 80° |
| 2026-05-04 20:54 | 38.50722 | 27.33661 | 15734 ft | 362 kts | 79° |
| 2026-05-04 20:55 | 38.50915 | 27.36889 | 16518 ft | 367 kts | 79° |
| 2026-05-04 20:55 | 38.51115 | 27.40094 | 17353 ft | 369 kts | 79° |
| 2026-05-04 20:55 | 38.51320 | 27.43344 | 18141 ft | 372 kts | 79° |
| 2026-05-04 20:55 | 38.51526 | 27.46665 | 18911 ft | 375 kts | 79° |
| 2026-05-04 20:56 | 38.51727 | 27.49939 | 19673 ft | 377 kts | 79° |
| 2026-05-04 20:56 | 38.51936 | 27.53308 | 20405 ft | 380 kts | 79° |
| 2026-05-04 20:56 | 38.52140 | 27.56657 | 21116 ft | 382 kts | 79° |
| 2026-05-04 20:56 | 38.52351 | 27.60056 | 21749 ft | 387 kts | 79° |
| 2026-05-04 20:57 | 38.52561 | 27.63445 | 22447 ft | 388 kts | 79° |
| 2026-05-04 20:57 | 38.52773 | 27.66893 | 23112 ft | 390 kts | 80° |
| 2026-05-04 20:57 | 38.52986 | 27.70372 | 23727 ft | 394 kts | 80° |
| 2026-05-04 20:57 | 38.53186 | 27.73660 | 24335 ft | 396 kts | 80° |
| 2026-05-04 20:58 | 38.53400 | 27.77184 | 24934 ft | 399 kts | 80° |
| 2026-05-04 20:58 | 38.53611 | 27.80704 | 25494 ft | 403 kts | 81° |
| 2026-05-04 20:58 | 38.53823 | 27.84269 | 26125 ft | 405 kts | 81° |
| 2026-05-04 20:58 | 38.54034 | 27.87850 | 26665 ft | 409 kts | 81° |
| 2026-05-04 20:59 | 38.54247 | 27.91499 | 27248 ft | 411 kts | 81° |
| 2026-05-04 20:59 | 38.54459 | 27.95154 | 27851 ft | 412 kts | 81° |
| 2026-05-04 20:59 | 38.54668 | 27.98771 | 28338 ft | 416 kts | 81° |
| 2026-05-04 20:59 | 38.54882 | 28.02450 | 28895 ft | 418 kts | 81° |
| 2026-05-04 21:00 | 38.55096 | 28.06168 | 29398 ft | 421 kts | 81° |
| 2026-05-04 21:00 | 38.55310 | 28.09887 | 29938 ft | 422 kts | 81° |
| 2026-05-04 21:00 | 38.55524 | 28.13645 | 30338 ft | 426 kts | 81° |
| 2026-05-04 21:00 | 38.55736 | 28.17409 | 30867 ft | 427 kts | 81° |
| 2026-05-04 21:01 | 38.55947 | 28.21183 | 31396 ft | 427 kts | 81° |
| 2026-05-04 21:01 | 38.56157 | 28.24955 | 31905 ft | 427 kts | 81° |
| 2026-05-04 21:01 | 38.56366 | 28.28722 | 32361 ft | 428 kts | 81° |
| 2026-05-04 21:01 | 38.56577 | 28.32468 | 32781 ft | 430 kts | 81° |
| 2026-05-04 21:02 | 38.56789 | 28.36271 | 33220 ft | 430 kts | 81° |
| 2026-05-04 21:02 | 38.56998 | 28.40082 | 33653 ft | 431 kts | 81° |
| 2026-05-04 21:02 | 38.57210 | 28.43932 | 33985 ft | 434 kts | 81° |
| 2026-05-04 21:02 | 38.57419 | 28.47773 | 34348 ft | 435 kts | 81° |
| 2026-05-04 21:03 | 38.57626 | 28.51643 | 34647 ft | 436 kts | 81° |
| 2026-05-04 21:03 | 38.57834 | 28.55566 | 34866 ft | 437 kts | 81° |
| 2026-05-04 21:03 | 38.58041 | 28.59472 | 35056 ft | 439 kts | 81° |
| 2026-05-04 21:03 | 38.58252 | 28.63413 | 35232 ft | 441 kts | 81° |
| 2026-05-04 21:04 | 38.58526 | 28.67315 | 35419 ft | 442 kts | 80° |
| 2026-05-04 21:04 | 38.58902 | 28.71269 | 35607 ft | 444 kts | 78° |
| 2026-05-04 21:04 | 38.59322 | 28.75163 | 35843 ft | 444 kts | 78° |
| 2026-05-04 21:04 | 38.59757 | 28.79099 | 36126 ft | 445 kts | 78° |
| 2026-05-04 21:05 | 38.60185 | 28.82998 | 36378 ft | 447 kts | 78° |
| 2026-05-04 21:05 | 38.60611 | 28.86957 | 36644 ft | 449 kts | 79° |
| 2026-05-04 21:05 | 38.61023 | 28.90862 | 36889 ft | 450 kts | 79° |
| 2026-05-04 21:05 | 38.61438 | 28.94851 | 37024 ft | 453 kts | 79° |
| 2026-05-04 21:06 | 38.62255 | 29.02864 | 37034 ft | 454 kts | 79° |
| 2026-05-04 21:06 | 38.63042 | 29.10791 | 37035 ft | 450 kts | 79° |
| 2026-05-04 21:07 | 38.63823 | 29.18688 | 37031 ft | 450 kts | 79° |
| 2026-05-04 21:07 | 38.64214 | 29.22681 | 37191 ft | 451 kts | 79° |
| 2026-05-04 21:07 | 38.64600 | 29.26632 | 37087 ft | 453 kts | 79° |
| 2026-05-04 21:08 | 38.65365 | 29.34533 | 37035 ft | 446 kts | 79° |
| 2026-05-04 21:08 | 38.66126 | 29.42407 | 37021 ft | 447 kts | 79° |
| 2026-05-04 21:09 | 38.66914 | 29.50276 | 37008 ft | 448 kts | 78° |
| 2026-05-04 21:09 | 38.67894 | 29.58123 | 37005 ft | 447 kts | 76° |
| 2026-05-04 21:10 | 38.68941 | 29.65993 | 37003 ft | 447 kts | 77° |
| 2026-05-04 21:10 | 38.69969 | 29.73854 | 37006 ft | 448 kts | 77° |
| 2026-05-04 21:11 | 38.70971 | 29.81715 | 37004 ft | 448 kts | 77° |
| 2026-05-04 21:11 | 38.71963 | 29.89618 | 36994 ft | 447 kts | 77° |
| 2026-05-04 21:12 | 38.72934 | 29.97433 | 36979 ft | 447 kts | 78° |
| 2026-05-04 21:12 | 38.73926 | 30.05287 | 36955 ft | 447 kts | 77° |
| 2026-05-04 21:13 | 38.74970 | 30.13132 | 36970 ft | 447 kts | 76° |
| 2026-05-04 21:13 | 38.76018 | 30.20939 | 36990 ft | 447 kts | 76° |
| 2026-05-04 21:14 | 38.77059 | 30.28781 | 36999 ft | 447 kts | 77° |
| 2026-05-04 21:14 | 38.78086 | 30.36603 | 36974 ft | 447 kts | 76° |
| 2026-05-04 21:15 | 38.79114 | 30.44482 | 36970 ft | 448 kts | 77° |
| 2026-05-04 21:15 | 38.80189 | 30.52318 | 36972 ft | 447 kts | 74° |
| 2026-05-04 21:16 | 38.81959 | 30.59838 | 36979 ft | 442 kts | 65° |
| 2026-05-04 21:16 | 38.84346 | 30.67053 | 36905 ft | 439 kts | 62° |
| 2026-05-04 21:17 | 38.86863 | 30.74279 | 36975 ft | 445 kts | 62° |
| 2026-05-04 21:17 | 38.89347 | 30.81548 | 36965 ft | 444 kts | 63° |
| 2026-05-04 21:18 | 38.91755 | 30.88752 | 36970 ft | 443 kts | 63° |
| 2026-05-04 21:18 | 38.94176 | 30.96049 | 36944 ft | 443 kts | 63° |
| 2026-05-04 21:19 | 38.96564 | 31.03297 | 36957 ft | 444 kts | 63° |
| 2026-05-04 21:19 | 38.98967 | 31.10608 | 36948 ft | 444 kts | 63° |
| 2026-05-04 21:20 | 39.01346 | 31.17870 | 36969 ft | 443 kts | 63° |
| 2026-05-04 21:20 | 39.03729 | 31.25158 | 36962 ft | 443 kts | 64° |
| 2026-05-04 21:21 | 39.06114 | 31.32472 | 36966 ft | 443 kts | 64° |
| 2026-05-04 21:21 | 39.08489 | 31.39778 | 36962 ft | 443 kts | 64° |
| 2026-05-04 21:22 | 39.10859 | 31.47091 | 36967 ft | 444 kts | 64° |
| 2026-05-04 21:22 | 39.13223 | 31.54405 | 37010 ft | 444 kts | 64° |
| 2026-05-04 21:23 | 39.15578 | 31.61708 | 36952 ft | 440 kts | 64° |
| 2026-05-04 21:23 | 39.17899 | 31.68925 | 36375 ft | 436 kts | 64° |
| 2026-05-04 21:24 | 39.19055 | 31.72532 | 35717 ft | 439 kts | 64° |
| 2026-05-04 21:24 | 39.20205 | 31.76124 | 35164 ft | 437 kts | 64° |
| 2026-05-04 21:24 | 39.21372 | 31.79771 | 34592 ft | 435 kts | 64° |
| 2026-05-04 21:24 | 39.22513 | 31.83344 | 33988 ft | 434 kts | 64° |
| 2026-05-04 21:25 | 39.23652 | 31.86920 | 33603 ft | 428 kts | 64° |
| 2026-05-04 21:25 | 39.24762 | 31.90414 | 33154 ft | 425 kts | 64° |
| 2026-05-04 21:25 | 39.25871 | 31.93903 | 32776 ft | 418 kts | 64° |
| 2026-05-04 21:25 | 39.26966 | 31.97350 | 32340 ft | 414 kts | 64° |
| 2026-05-04 21:26 | 39.28061 | 32.00806 | 31905 ft | 409 kts | 64° |
| 2026-05-04 21:26 | 39.29129 | 32.04180 | 31437 ft | 406 kts | 64° |
| 2026-05-04 21:26 | 39.30181 | 32.07509 | 31043 ft | 402 kts | 63° |
| 2026-05-04 21:26 | 39.31227 | 32.10821 | 30649 ft | 396 kts | 63° |
| 2026-05-04 21:27 | 39.32259 | 32.14097 | 30256 ft | 390 kts | 63° |
| 2026-05-04 21:27 | 39.33270 | 32.17302 | 29718 ft | 389 kts | 63° |
| 2026-05-04 21:27 | 39.34272 | 32.20480 | 29353 ft | 383 kts | 63° |
| 2026-05-04 21:27 | 39.35274 | 32.23663 | 28842 ft | 382 kts | 63° |
| 2026-05-04 21:28 | 39.36270 | 32.26828 | 28348 ft | 380 kts | 63° |
| 2026-05-04 21:28 | 39.37258 | 32.29936 | 27963 ft | 375 kts | 62° |
| 2026-05-04 21:28 | 39.38386 | 32.32962 | 27545 ft | 368 kts | 56° |
| 2026-05-04 21:28 | 39.39838 | 32.35606 | 27002 ft | 363 kts | 44° |
| 2026-05-04 21:29 | 39.41657 | 32.37768 | 26702 ft | 353 kts | 35° |
| 2026-05-04 21:29 | 39.43641 | 32.39628 | 26199 ft | 351 kts | 32° |
| 2026-05-04 21:29 | 39.45663 | 32.41346 | 25816 ft | 348 kts | 31° |
| 2026-05-04 21:29 | 39.47703 | 32.43016 | 25339 ft | 346 kts | 30° |
| 2026-05-04 21:30 | 39.49727 | 32.44656 | 24922 ft | 343 kts | 30° |
| 2026-05-04 21:30 | 39.51741 | 32.46298 | 24472 ft | 341 kts | 31° |
| 2026-05-04 21:30 | 39.53735 | 32.47934 | 24055 ft | 336 kts | 31° |
| 2026-05-04 21:30 | 39.55688 | 32.49547 | 23475 ft | 336 kts | 31° |
| 2026-05-04 21:31 | 39.59599 | 32.52798 | 22379 ft | 333 kts | 32° |
| 2026-05-04 21:31 | 39.61539 | 32.54414 | 21831 ft | 332 kts | 32° |
| 2026-05-04 21:31 | 39.63469 | 32.56021 | 21256 ft | 332 kts | 32° |
| 2026-05-04 21:32 | 39.65407 | 32.57640 | 20744 ft | 331 kts | 33° |
| 2026-05-04 21:32 | 39.67356 | 32.59249 | 20185 ft | 330 kts | 32° |
| 2026-05-04 21:32 | 39.69282 | 32.60825 | 19648 ft | 329 kts | 33° |
| 2026-05-04 21:32 | 39.71199 | 32.62429 | 19124 ft | 328 kts | 33° |
| 2026-05-04 21:33 | 39.73101 | 32.64038 | 18554 ft | 329 kts | 33° |
| 2026-05-04 21:33 | 39.75005 | 32.65654 | 18092 ft | 326 kts | 34° |
| 2026-05-04 21:33 | 39.76876 | 32.67238 | 17873 ft | 315 kts | 34° |
| 2026-05-04 21:33 | 39.78692 | 32.68769 | 17739 ft | 303 kts | 34° |
| 2026-05-04 21:34 | 39.80434 | 32.70234 | 17495 ft | 297 kts | 34° |
| 2026-05-04 21:34 | 39.82167 | 32.71693 | 17052 ft | 296 kts | 34° |
| 2026-05-04 21:34 | 39.83899 | 32.73150 | 16607 ft | 296 kts | 34° |
| 2026-05-04 21:34 | 39.85619 | 32.74597 | 16212 ft | 294 kts | 34° |
| 2026-05-04 21:35 | 39.87331 | 32.76038 | 15802 ft | 293 kts | 34° |
| 2026-05-04 21:35 | 39.89033 | 32.77471 | 15416 ft | 291 kts | 35° |
| 2026-05-04 21:35 | 39.90529 | 32.78730 | 15230 ft | 283 kts | 34° |
| 2026-05-04 21:35 | 39.92158 | 32.80102 | 15114 ft | 272 kts | 34° |
| 2026-05-04 21:36 | 39.93733 | 32.81430 | 14970 ft | 263 kts | 35° |
| 2026-05-04 21:36 | 39.95233 | 32.82701 | 14764 ft | 258 kts | 36° |
| 2026-05-04 21:36 | 39.96711 | 32.84052 | 14279 ft | 263 kts | 38° |
| 2026-05-04 21:36 | 39.98202 | 32.85515 | 13573 ft | 275 kts | 39° |
| 2026-05-04 21:37 | 39.99741 | 32.87029 | 12833 ft | 287 kts | 38° |
| 2026-05-04 21:37 | 40.01385 | 32.88620 | 12046 ft | 299 kts | 38° |
| 2026-05-04 21:37 | 40.03025 | 32.90315 | 11228 ft | 308 kts | 47° |
| 2026-05-04 21:37 | 40.04106 | 32.92710 | 10442 ft | 315 kts | 75° |
| 2026-05-04 21:38 | 40.04130 | 32.95529 | 9784 ft | 313 kts | 105° |
| 2026-05-04 21:38 | 40.03076 | 32.97885 | 9415 ft | 300 kts | 136° |
| 2026-05-04 21:38 | 40.01310 | 32.99073 | 9405 ft | 277 kts | 171° |
| 2026-05-04 21:38 | 39.99512 | 32.98815 | 9523 ft | 253 kts | 202° |
| 2026-05-04 21:39 | 39.98008 | 32.97765 | 9599 ft | 235 kts | 211° |
| 2026-05-04 21:39 | 39.96682 | 32.96669 | 9706 ft | 221 kts | 212° |
| 2026-05-04 21:39 | 39.95379 | 32.95575 | 9798 ft | 227 kts | 212° |
| 2026-05-04 21:39 | 39.94044 | 32.94453 | 9887 ft | 230 kts | 212° |
| 2026-05-04 21:40 | 39.92723 | 32.93341 | 9965 ft | 219 kts | 212° |
| 2026-05-04 21:40 | 39.91470 | 32.92287 | 10049 ft | 212 kts | 212° |
| 2026-05-04 21:40 | 39.90222 | 32.91233 | 10146 ft | 214 kts | 212° |
| 2026-05-04 21:40 | 39.88961 | 32.90167 | 10238 ft | 216 kts | 212° |
| 2026-05-04 21:41 | 39.87851 | 32.88881 | 10313 ft | 217 kts | 240° |
| 2026-05-04 21:41 | 39.87534 | 32.87032 | 10194 ft | 210 kts | 282° |
| 2026-05-04 21:41 | 39.88237 | 32.85436 | 9817 ft | 209 kts | 324° |
| 2026-05-04 21:41 | 39.89487 | 32.84465 | 9439 ft | 210 kts | 335° |
| 2026-05-04 21:42 | 39.90792 | 32.83622 | 9062 ft | 213 kts | 335° |
| 2026-05-04 21:42 | 39.92139 | 32.82755 | 8677 ft | 215 kts | 337° |
| 2026-05-04 21:42 | 39.93581 | 32.82428 | 8287 ft | 214 kts | 10° |
| 2026-05-04 21:42 | 39.95002 | 32.83020 | 7901 ft | 216 kts | 21° |
| 2026-05-04 21:43 | 39.96370 | 32.83797 | 7558 ft | 216 kts | 26° |
| 2026-05-04 21:43 | 39.97542 | 32.84993 | 7226 ft | 217 kts | 44° |
| 2026-05-04 21:43 | 39.98524 | 32.86425 | 6883 ft | 205 kts | 46° |
| 2026-05-04 21:43 | 39.99408 | 32.87777 | 6673 ft | 186 kts | 44° |
| 2026-05-04 21:44 | 40.00385 | 32.88645 | 6646 ft | 158 kts | 19° |
| 2026-05-04 21:44 | 40.01378 | 32.89247 | 6548 ft | 157 kts | 26° |
| 2026-05-04 21:44 | 40.02291 | 32.89977 | 6415 ft | 153 kts | 28° |
| 2026-05-04 21:44 | 40.03168 | 32.90720 | 6232 ft | 147 kts | 30° |
| 2026-05-04 21:45 | 40.04032 | 32.91481 | 5990 ft | 154 kts | 30° |
| 2026-05-04 21:45 | 40.04913 | 32.92280 | 5729 ft | 153 kts | 31° |
| 2026-05-04 21:45 | 40.05774 | 32.93077 | 5586 ft | 150 kts | 32° |
| 2026-05-04 21:45 | 40.06573 | 32.93946 | 5513 ft | 143 kts | 39° |
| 2026-05-04 21:46 | 40.07319 | 32.94753 | 5106 ft | 143 kts | 33° |
| 2026-05-04 21:46 | 40.08152 | 32.95485 | 4740 ft | 146 kts | 29° |
| 2026-05-04 21:46 | 40.09022 | 32.96182 | 4396 ft | 148 kts | 29° |
| 2026-05-04 21:46 | 40.09890 | 32.96912 | 4044 ft | 153 kts | 31° |
| 2026-05-04 21:47 | 40.10769 | 32.97732 | 4366 ft | 153 kts | 34° |
| 2026-05-04 21:47 | 40.11618 | 32.98557 | 4693 ft | 153 kts | 33° |
| 2026-05-04 21:47 | 40.12534 | 32.99364 | 4822 ft | 173 kts | 23° |
| 2026-05-04 21:47 | 40.13773 | 32.99719 | 5105 ft | 190 kts | 1° |
| 2026-05-04 21:48 | 40.15090 | 32.99750 | 5546 ft | 195 kts | 359° |
| 2026-05-04 21:48 | 40.16409 | 32.99778 | 6050 ft | 186 kts | 0° |
| 2026-05-04 21:48 | 40.17704 | 32.99767 | 6262 ft | 188 kts | 357° |
| 2026-05-04 21:48 | 40.18943 | 32.99772 | 6739 ft | 177 kts | 0° |
| 2026-05-04 21:49 | 40.20169 | 32.99839 | 6930 ft | 180 kts | 5° |
| 2026-05-04 21:49 | 40.21385 | 33.00387 | 6835 ft | 187 kts | 36° |
| 2026-05-04 21:49 | 40.22086 | 33.01806 | 6584 ft | 194 kts | 74° |
| 2026-05-04 21:49 | 40.21925 | 33.03567 | 6081 ft | 202 kts | 114° |
| 2026-05-04 21:50 | 40.20953 | 33.04802 | 5581 ft | 200 kts | 156° |
| 2026-05-04 21:50 | 40.19657 | 33.05270 | 5349 ft | 179 kts | 176° |
| 2026-05-04 21:50 | 40.18505 | 33.05076 | 5022 ft | 167 kts | 204° |
| 2026-05-04 21:50 | 40.17569 | 33.04261 | 4647 ft | 152 kts | 224° |
| 2026-05-04 21:51 | 40.16757 | 33.03449 | 4253 ft | 145 kts | 218° |
| 2026-05-04 21:51 | 40.15979 | 33.02694 | 3899 ft | 139 kts | 221° |
| 2026-05-04 21:51 | 40.15209 | 33.01939 | 3539 ft | 137 kts | 217° |
| 2026-05-04 21:51 | 40.14452 | 33.01226 | 3259 ft | 131 kts | 219° |
| 2026-05-04 21:52 | 40.13737 | 33.00535 | 3135 ft | 120 kts | 218° |
| 2026-05-04 21:52 | 40.13235 | 33.00048 | 3130 ft | 60 kts | 217° |
| 2026-05-04 21:52 | 40.12951 | 32.99780 | 3127 ft | 45 kts | 216° |
| 2026-05-04 21:52 | 40.12693 | 32.99540 | 3124 ft | 45 kts | 217° |
| 2026-05-04 21:53 | 40.12441 | 32.99296 | 3121 ft | 45 kts | 214° |
| 2026-05-04 21:53 | 40.12223 | 32.99195 | 3122 ft | 22 kts | 187° |
| 2026-05-04 21:53 | 40.12069 | 32.99178 | 3123 ft | 21 kts | 187° |
| 2026-05-04 21:53 | 40.11929 | 32.99115 | 3123 ft | 21 kts | 216° |
| 2026-05-04 21:54 | 40.11822 | 32.99035 | 3122 ft | 14 kts | 172° |
| 2026-05-04 21:54 | 40.11776 | 32.99082 | 3124 ft | 6 kts | 137° |
| 2026-05-04 21:54 | 40.11738 | 32.99115 | 3124 ft | 8 kts | 158° |
| 2026-05-04 21:54 | 40.11674 | 32.99086 | 3124 ft | 10 kts | 231° |
| 2026-05-04 21:55 | 40.11627 | 32.99003 | 3122 ft | 12 kts | 231° |
| 2026-05-04 21:55 | 40.11586 | 32.98941 | 3121 ft | 0 kts | 226° |
| 2026-05-04 21:55 | 40.11574 | 32.98924 | 3120 ft | 4 kts | 226° |
| 2026-05-04 21:55 | 40.11527 | 32.98906 | 3119 ft | 8 kts | 158° |
| 2026-05-04 21:56 | 40.11495 | 32.98946 | 3120 ft | 0 kts | 131° |